Skip to content.

Wairarapa Tararua

  

Palliser - PAL

Logged in to unit HSN11400 as: Guest
(Last data received Thu 22 Feb 2018 17:30:00 - 10 minutes ago)

Weather FWI Graphs Forecast Hourly FWI Daily FWI Download FWI Data

Hourly FWI Logs | Period From 17:40 21/02/2018 to 17:40 22/02/2018

Change the DoC% for the 24hr period starting 12:00pm 22/2/2018 to

If the date above is the current day, then all future logs will inherit this value until such time as it is changed again. If you wish to change historic values you can do so by going back to the day you want to alter (navigate via the graphs) and change the DoC% there (however this will only affect that day).

WindRainHourly FWIsDaily FWIsForestGrassScrub
DateTime (NZST)Temp (C)RH (%)Dir (deg)Speed (km/h)Hourly (mm)Daily (mm)FFMCISIHFWIFFMCDMCDCISIBUIFWIDSRROS (m/h)FFI (kW/m)FFDCDoC (%)ROS (m/h)GFI (kW/m)GFDCROS (m/h)SFI (kW/m)SFDC
22/02/2018 1600 16.9 72.8 183 22.4 0.0 46.0 0.3 0.2 1 0 L 75 3 5 L 24 244 M
22/02/2018 1500 17.0 75.1 185 24.4 0.0 42.7 0.2 0.1 0 0 L 75 2 3 L 13 129 M
22/02/2018 1400 15.5 75.3 181 25.7 0.0 39.2 0.1 0.1 0 0 L 75 1 1 L 6 56 M
22/02/2018 1300 15.3 79.7 175 25.3 0.0 35.8 0.1 0.0 0 0 L 75 0 0 L 2 18 M
22/02/2018 1200 15.5 78.3 192 27.7 0.0 7.4 32.7 0.0 0.0 49.7 4.1 331.0 0.6 8.0 0.3 0.0 0 0 L 75 0 0 L 1 7 L
22/02/2018 1100 15.0 80.6 191 28.2 0.0 29.2 0.0 0.0 0 0 L 75 0 0 L 0 2 L
22/02/2018 1000 14.8 81.9 183 26.1 0.0 25.9 0.0 0.0 0 0 L 75 0 0 L 0 0 L
22/02/2018 0900 13.9 84.1 187 31.5 0.2 22.8 0.0 0.0 0 0 L 75 0 0 L 0 0 L
22/02/2018 0800 12.9 91.1 183 27.7 0.4 20.7 0.0 0.0 0 0 L 75 0 0 L 0 0 L
22/02/2018 0700 13.7 88.5 180 26.9 0.0 20.6 0.0 0.0 0 0 L 75 0 0 L 0 0 L
22/02/2018 0600 12.9 89.0 181 28.2 1.4 18.4 0.0 0.0 0 0 L 75 0 0 L 0 0 L
22/02/2018 0500 12.6 92.7 178 29.0 1.8 22.4 0.0 0.0 0 0 L 75 0 0 L 0 0 L
22/02/2018 0400 12.4 91.0 177 29.8 2.8 32.4 0.0 0.0 0 0 L 75 0 0 L 1 8 L
22/02/2018 0300 13.3 88.6 181 26.9 0.6 61.6 1.7 1.8 25 9 L 75 61 107 M 314 3142 V
22/02/2018 0200 13.3 85.9 186 31.0 0.2 71.3 3.1 4.0 61 23 M 75 159 278 M 683 6831 E
22/02/2018 0100 13.8 82.4 188 33.9 0.0 74.7 4.2 5.4 93 35 M 75 252 441 M 980 9796 E
22/02/2018 0000 13.7 81.0 178 24.8 0.0 74.2 2.6 3.2 45 17 M 75 116 202 M 530 5298 E
21/02/2018 2300 13.8 83.4 182 26.5 0.0 73.6 2.7 3.4 50 19 M 75 127 222 M 571 5709 E
21/02/2018 2200 14.2 78.8 176 24.8 0.0 73.1 2.4 3.0 42 16 M 75 107 187 M 496 4964 E
21/02/2018 2100 14.5 84.6 182 19.5 0.0 72.3 1.8 1.9 26 10 L 75 65 114 M 331 3305 V
21/02/2018 2000 14.8 82.1 158 15.7 0.0 71.8 1.5 1.3 19 7 L 75 46 81 M 248 2482 V
21/02/2018 1900 14.8 82.6 168 12.4 0.0 71.1 1.2 0.9 14 5 L 75 34 59 M 190 1903 H
21/02/2018 1800 14.8 86.7 193 23.2 0.0 70.5 2.0 2.4 32 12 M 75 80 140 M 392 3917 V
21/02/2018 1700 19.4 69.3 326 23.2 0.0 69.9 2.0 2.3 31 12 M 75 77 135 M 382 3817 V